sensor_id;sensor_type;location;lat;lon;timestamp;temperature;humidity
13433;DHT22;6789;47.678;9.158;2023-06-14T00:01:26;16.20;99.80
13433;DHT22;6789;47.678;9.158;2023-06-14T00:06:18;16.00;99.90
13433;DHT22;6789;47.678;9.158;2023-06-14T00:11:10;15.80;99.90
13433;DHT22;6789;47.678;9.158;2023-06-14T00:16:02;15.60;99.90
13433;DHT22;6789;47.678;9.158;2023-06-14T00:20:56;15.50;99.90
13433;DHT22;6789;47.678;9.158;2023-06-14T00:25:48;15.30;99.90
13433;DHT22;6789;47.678;9.158;2023-06-14T00:30:39;15.30;99.90
13433;DHT22;6789;47.678;9.158;2023-06-14T00:35:31;15.20;99.90
13433;DHT22;6789;47.678;9.158;2023-06-14T00:40:23;15.00;99.90
13433;DHT22;6789;47.678;9.158;2023-06-14T00:45:15;14.90;99.90
13433;DHT22;6789;47.678;9.158;2023-06-14T00:50:07;14.80;99.90
13433;DHT22;6789;47.678;9.158;2023-06-14T00:55:01;14.70;99.90
13433;DHT22;6789;47.678;9.158;2023-06-14T00:59:53;14.60;99.90
13433;DHT22;6789;47.678;9.158;2023-06-14T01:04:47;14.60;99.90
13433;DHT22;6789;47.678;9.158;2023-06-14T01:09:55;14.50;99.90
13433;DHT22;6789;47.678;9.158;2023-06-14T01:14:59;14.30;99.90
13433;DHT22;6789;47.678;9.158;2023-06-14T01:19:53;14.20;99.90
13433;DHT22;6789;47.678;9.158;2023-06-14T01:24:49;14.20;99.90
13433;DHT22;6789;47.678;9.158;2023-06-14T01:29:42;14.00;99.90
13433;DHT22;6789;47.678;9.158;2023-06-14T01:34:37;14.00;99.90
13433;DHT22;6789;47.678;9.158;2023-06-14T01:39:30;14.00;99.90
13433;DHT22;6789;47.678;9.158;2023-06-14T01:44:23;14.00;99.90
13433;DHT22;6789;47.678;9.158;2023-06-14T01:49:16;14.00;99.90
13433;DHT22;6789;47.678;9.158;2023-06-14T01:54:08;14.00;99.90
13433;DHT22;6789;47.678;9.158;2023-06-14T01:58:59;14.10;99.90
13433;DHT22;6789;47.678;9.158;2023-06-14T02:03:51;14.10;99.90
13433;DHT22;6789;47.678;9.158;2023-06-14T02:08:45;13.90;99.90
13433;DHT22;6789;47.678;9.158;2023-06-14T02:13:37;13.70;99.90
13433;DHT22;6789;47.678;9.158;2023-06-14T02:18:29;13.60;99.90
13433;DHT22;6789;47.678;9.158;2023-06-14T02:23:21;13.50;99.90
13433;DHT22;6789;47.678;9.158;2023-06-14T02:28:20;13.50;99.90
13433;DHT22;6789;47.678;9.158;2023-06-14T02:33:12;13.30;99.90
13433;DHT22;6789;47.678;9.158;2023-06-14T02:38:04;13.20;99.90
13433;DHT22;6789;47.678;9.158;2023-06-14T02:42:56;13.10;99.90
13433;DHT22;6789;47.678;9.158;2023-06-14T02:47:48;13.20;99.90
13433;DHT22;6789;47.678;9.158;2023-06-14T02:52:40;13.30;99.90
13433;DHT22;6789;47.678;9.158;2023-06-14T02:57:33;13.30;99.90
13433;DHT22;6789;47.678;9.158;2023-06-14T03:02:25;13.20;99.90
13433;DHT22;6789;47.678;9.158;2023-06-14T03:07:16;13.10;99.90
13433;DHT22;6789;47.678;9.158;2023-06-14T03:12:11;13.10;99.90
13433;DHT22;6789;47.678;9.158;2023-06-14T03:17:03;13.20;99.90
13433;DHT22;6789;47.678;9.158;2023-06-14T03:21:56;13.10;99.90
13433;DHT22;6789;47.678;9.158;2023-06-14T03:26:48;13.10;99.90
13433;DHT22;6789;47.678;9.158;2023-06-14T03:31:56;13.10;99.90
13433;DHT22;6789;47.678;9.158;2023-06-14T03:36:52;13.10;99.90
13433;DHT22;6789;47.678;9.158;2023-06-14T03:41:44;13.20;99.90
13433;DHT22;6789;47.678;9.158;2023-06-14T03:46:36;13.20;99.90
13433;DHT22;6789;47.678;9.158;2023-06-14T03:51:27;13.30;99.90
13433;DHT22;6789;47.678;9.158;2023-06-14T03:56:19;13.40;99.90
13433;DHT22;6789;47.678;9.158;2023-06-14T04:01:11;14.50;99.90
13433;DHT22;6789;47.678;9.158;2023-06-14T04:06:04;16.30;99.90
13433;DHT22;6789;47.678;9.158;2023-06-14T04:10:57;17.80;99.90
13433;DHT22;6789;47.678;9.158;2023-06-14T04:15:49;18.60;99.90
13433;DHT22;6789;47.678;9.158;2023-06-14T04:20:42;19.90;99.90
13433;DHT22;6789;47.678;9.158;2023-06-14T04:25:35;21.20;99.90
13433;DHT22;6789;47.678;9.158;2023-06-14T04:30:27;21.90;99.90
13433;DHT22;6789;47.678;9.158;2023-06-14T04:35:23;22.50;99.90
13433;DHT22;6789;47.678;9.158;2023-06-14T04:40:23;23.10;99.90
13433;DHT22;6789;47.678;9.158;2023-06-14T04:45:15;23.70;99.90
13433;DHT22;6789;47.678;9.158;2023-06-14T04:50:09;25.80;97.40
13433;DHT22;6789;47.678;9.158;2023-06-14T04:55:03;25.90;96.00
13433;DHT22;6789;47.678;9.158;2023-06-14T04:59:55;27.80;92.10
13433;DHT22;6789;47.678;9.158;2023-06-14T05:04:49;28.40;90.20
13433;DHT22;6789;47.678;9.158;2023-06-14T05:09:41;29.10;85.40
13433;DHT22;6789;47.678;9.158;2023-06-14T05:14:47;28.60;84.20
13433;DHT22;6789;47.678;9.158;2023-06-14T05:19:47;29.20;81.70
13433;DHT22;6789;47.678;9.158;2023-06-14T05:24:39;28.60;82.00
13433;DHT22;6789;47.678;9.158;2023-06-14T05:29:32;29.70;79.60
13433;DHT22;6789;47.678;9.158;2023-06-14T05:34:24;29.30;80.30
13433;DHT22;6789;47.678;9.158;2023-06-14T05:39:30;29.20;79.10
13433;DHT22;6789;47.678;9.158;2023-06-14T05:44:23;29.90;77.80
13433;DHT22;6789;47.678;9.158;2023-06-14T05:49:17;29.00;77.60
13433;DHT22;6789;47.678;9.158;2023-06-14T05:54:24;28.30;78.60
13433;DHT22;6789;47.678;9.158;2023-06-14T05:59:31;27.70;80.30
13433;DHT22;6789;47.678;9.158;2023-06-14T06:04:26;28.00;80.80
13433;DHT22;6789;47.678;9.158;2023-06-14T06:09:18;28.20;79.20
13433;DHT22;6789;47.678;9.158;2023-06-14T06:14:12;27.90;81.10
13433;DHT22;6789;47.678;9.158;2023-06-14T06:19:04;26.90;80.30
13433;DHT22;6789;47.678;9.158;2023-06-14T06:23:55;27.00;82.30
13433;DHT22;6789;47.678;9.158;2023-06-14T06:28:47;25.70;80.10
13433;DHT22;6789;47.678;9.158;2023-06-14T06:33:43;23.90;82.90
13433;DHT22;6789;47.678;9.158;2023-06-14T06:38:37;22.30;85.50
13433;DHT22;6789;47.678;9.158;2023-06-14T06:43:30;22.30;87.60
13433;DHT22;6789;47.678;9.158;2023-06-14T06:48:23;22.50;87.40
13433;DHT22;6789;47.678;9.158;2023-06-14T06:53:24;22.50;88.80
13433;DHT22;6789;47.678;9.158;2023-06-14T06:58:32;22.10;89.20
13433;DHT22;6789;47.678;9.158;2023-06-14T07:03:25;22.00;88.70
13433;DHT22;6789;47.678;9.158;2023-06-14T07:08:17;21.70;90.10
13433;DHT22;6789;47.678;9.158;2023-06-14T07:13:24;22.10;89.80
13433;DHT22;6789;47.678;9.158;2023-06-14T07:18:30;22.40;89.10
13433;DHT22;6789;47.678;9.158;2023-06-14T07:23:26;22.80;89.00
13433;DHT22;6789;47.678;9.158;2023-06-14T07:28:32;22.70;88.50
13433;DHT22;6789;47.678;9.158;2023-06-14T07:33:31;22.40;89.90
13433;DHT22;6789;47.678;9.158;2023-06-14T07:38:37;23.20;89.30
13433;DHT22;6789;47.678;9.158;2023-06-14T07:43:30;22.90;89.80
13433;DHT22;6789;47.678;9.158;2023-06-14T07:48:30;23.20;89.90
13433;DHT22;6789;47.678;9.158;2023-06-14T07:53:22;23.20;88.90
13433;DHT22;6789;47.678;9.158;2023-06-14T07:58:14;23.10;90.20
13433;DHT22;6789;47.678;9.158;2023-06-14T08:03:10;23.40;90.10
13433;DHT22;6789;47.678;9.158;2023-06-14T08:08:03;23.40;87.10
13433;DHT22;6789;47.678;9.158;2023-06-14T08:12:55;23.10;89.90
13433;DHT22;6789;47.678;9.158;2023-06-14T08:18:01;23.40;89.30
13433;DHT22;6789;47.678;9.158;2023-06-14T08:22:53;23.30;87.40
13433;DHT22;6789;47.678;9.158;2023-06-14T08:27:48;23.30;86.30
13433;DHT22;6789;47.678;9.158;2023-06-14T08:32:41;23.40;87.50
13433;DHT22;6789;47.678;9.158;2023-06-14T08:37:33;23.90;87.20
13433;DHT22;6789;47.678;9.158;2023-06-14T08:42:54;23.60;87.30
13433;DHT22;6789;47.678;9.158;2023-06-14T08:48:00;23.50;86.30
13433;DHT22;6789;47.678;9.158;2023-06-14T08:53:04;23.60;84.60
13433;DHT22;6789;47.678;9.158;2023-06-14T08:58:21;23.60;83.70
13433;DHT22;6789;47.678;9.158;2023-06-14T09:03:18;23.80;84.40
13433;DHT22;6789;47.678;9.158;2023-06-14T09:08:32;23.90;82.60
13433;DHT22;6789;47.678;9.158;2023-06-14T09:14:27;23.60;81.70
13433;DHT22;6789;47.678;9.158;2023-06-14T09:19:37;23.60;84.20
13433;DHT22;6789;47.678;9.158;2023-06-14T09:24:47;24.00;82.50
13433;DHT22;6789;47.678;9.158;2023-06-14T09:29:54;23.30;82.10
13433;DHT22;6789;47.678;9.158;2023-06-14T09:35:00;23.80;83.40
13433;DHT22;6789;47.678;9.158;2023-06-14T09:39:59;24.10;81.70
13433;DHT22;6789;47.678;9.158;2023-06-14T09:45:08;24.10;79.70
13433;DHT22;6789;47.678;9.158;2023-06-14T09:50:16;24.00;81.40
13433;DHT22;6789;47.678;9.158;2023-06-14T09:55:23;24.30;82.30
13433;DHT22;6789;47.678;9.158;2023-06-14T10:00:34;24.00;80.60
13433;DHT22;6789;47.678;9.158;2023-06-14T10:10:48;24.20;81.60
13433;DHT22;6789;47.678;9.158;2023-06-14T10:16:15;24.00;81.40
13433;DHT22;6789;47.678;9.158;2023-06-14T10:26:53;24.20;80.30
13433;DHT22;6789;47.678;9.158;2023-06-14T10:32:02;24.10;80.70
13433;DHT22;6789;47.678;9.158;2023-06-14T10:37:13;24.40;80.80
13433;DHT22;6789;47.678;9.158;2023-06-14T10:43:20;24.50;80.70
13433;DHT22;6789;47.678;9.158;2023-06-14T10:49:06;24.60;80.10
13433;DHT22;6789;47.678;9.158;2023-06-14T10:54:21;24.50;80.30
13433;DHT22;6789;47.678;9.158;2023-06-14T10:59:38;24.90;80.10
13433;DHT22;6789;47.678;9.158;2023-06-14T11:05:10;24.90;80.60
13433;DHT22;6789;47.678;9.158;2023-06-14T11:10:31;24.50;80.50
13433;DHT22;6789;47.678;9.158;2023-06-14T11:16:42;24.70;81.10
13433;DHT22;6789;47.678;9.158;2023-06-14T11:22:13;25.10;80.30
13433;DHT22;6789;47.678;9.158;2023-06-14T11:27:33;25.40;78.90
13433;DHT22;6789;47.678;9.158;2023-06-14T11:32:57;25.20;78.90
13433;DHT22;6789;47.678;9.158;2023-06-14T11:38:04;25.20;79.60
13433;DHT22;6789;47.678;9.158;2023-06-14T11:43:23;25.10;78.80
13433;DHT22;6789;47.678;9.158;2023-06-14T11:49:11;24.80;80.10
13433;DHT22;6789;47.678;9.158;2023-06-14T11:55:07;24.90;80.20
13433;DHT22;6789;47.678;9.158;2023-06-14T12:00:15;25.30;78.50
13433;DHT22;6789;47.678;9.158;2023-06-14T12:05:23;25.80;77.40
13433;DHT22;6789;47.678;9.158;2023-06-14T12:10:40;25.00;78.10
13433;DHT22;6789;47.678;9.158;2023-06-14T12:15:55;24.90;78.90
13433;DHT22;6789;47.678;9.158;2023-06-14T12:21:08;25.20;78.60
13433;DHT22;6789;47.678;9.158;2023-06-14T12:26:19;25.50;79.20
13433;DHT22;6789;47.678;9.158;2023-06-14T12:31:27;25.70;78.10
13433;DHT22;6789;47.678;9.158;2023-06-14T12:36:36;26.10;78.30
13433;DHT22;6789;47.678;9.158;2023-06-14T12:41:51;25.70;77.20
13433;DHT22;6789;47.678;9.158;2023-06-14T12:46:57;25.90;77.90
13433;DHT22;6789;47.678;9.158;2023-06-14T12:51:51;25.90;78.70
13433;DHT22;6789;47.678;9.158;2023-06-14T12:56:45;25.50;77.20
13433;DHT22;6789;47.678;9.158;2023-06-14T13:01:53;25.20;79.30
13433;DHT22;6789;47.678;9.158;2023-06-14T13:06:53;25.60;78.50
13433;DHT22;6789;47.678;9.158;2023-06-14T13:11:59;26.00;78.80
13433;DHT22;6789;47.678;9.158;2023-06-14T13:17:09;26.30;77.80
13433;DHT22;6789;47.678;9.158;2023-06-14T13:22:17;26.20;77.20
13433;DHT22;6789;47.678;9.158;2023-06-14T13:27:26;26.10;77.50
13433;DHT22;6789;47.678;9.158;2023-06-14T13:32:32;25.20;79.60
13433;DHT22;6789;47.678;9.158;2023-06-14T13:37:39;25.60;79.30
13433;DHT22;6789;47.678;9.158;2023-06-14T13:43:05;25.90;78.50
13433;DHT22;6789;47.678;9.158;2023-06-14T13:48:12;26.20;77.80
13433;DHT22;6789;47.678;9.158;2023-06-14T13:54:08;26.30;79.00
13433;DHT22;6789;47.678;9.158;2023-06-14T13:59:16;25.70;80.20
13433;DHT22;6789;47.678;9.158;2023-06-14T14:04:23;25.80;80.30
13433;DHT22;6789;47.678;9.158;2023-06-14T14:09:30;26.00;80.40
13433;DHT22;6789;47.678;9.158;2023-06-14T14:20:48;25.60;79.30
13433;DHT22;6789;47.678;9.158;2023-06-14T14:25:54;25.40;79.90
13433;DHT22;6789;47.678;9.158;2023-06-14T14:31:00;25.70;79.70
13433;DHT22;6789;47.678;9.158;2023-06-14T14:36:07;26.10;80.20
13433;DHT22;6789;47.678;9.158;2023-06-14T14:41:13;26.10;80.00
13433;DHT22;6789;47.678;9.158;2023-06-14T14:46:19;26.20;79.20
13433;DHT22;6789;47.678;9.158;2023-06-14T14:51:42;26.10;79.20
13433;DHT22;6789;47.678;9.158;2023-06-14T14:56:59;26.20;79.20
13433;DHT22;6789;47.678;9.158;2023-06-14T15:02:20;25.60;79.40
13433;DHT22;6789;47.678;9.158;2023-06-14T15:07:27;25.60;79.30
13433;DHT22;6789;47.678;9.158;2023-06-14T15:12:35;25.60;78.30
13433;DHT22;6789;47.678;9.158;2023-06-14T15:17:50;25.60;77.70
13433;DHT22;6789;47.678;9.158;2023-06-14T15:22:56;25.30;77.40
13433;DHT22;6789;47.678;9.158;2023-06-14T15:28:05;25.40;78.90
13433;DHT22;6789;47.678;9.158;2023-06-14T15:33:12;25.50;77.90
13433;DHT22;6789;47.678;9.158;2023-06-14T15:38:20;25.70;77.20
13433;DHT22;6789;47.678;9.158;2023-06-14T15:43:12;25.90;77.30
13433;DHT22;6789;47.678;9.158;2023-06-14T15:48:05;25.80;77.40
13433;DHT22;6789;47.678;9.158;2023-06-14T15:53:22;25.60;78.50
13433;DHT22;6789;47.678;9.158;2023-06-14T15:58:14;25.30;78.40
13433;DHT22;6789;47.678;9.158;2023-06-14T16:03:21;25.50;77.00
13433;DHT22;6789;47.678;9.158;2023-06-14T16:08:13;25.70;78.20
13433;DHT22;6789;47.678;9.158;2023-06-14T16:13:28;25.50;77.70
13433;DHT22;6789;47.678;9.158;2023-06-14T16:18:22;25.50;77.80
13433;DHT22;6789;47.678;9.158;2023-06-14T16:23:14;25.70;78.70
13433;DHT22;6789;47.678;9.158;2023-06-14T16:28:19;25.50;77.80
13433;DHT22;6789;47.678;9.158;2023-06-14T16:33:11;25.40;78.20
13433;DHT22;6789;47.678;9.158;2023-06-14T16:38:03;25.20;77.40
13433;DHT22;6789;47.678;9.158;2023-06-14T16:42:55;25.30;77.10
13433;DHT22;6789;47.678;9.158;2023-06-14T16:47:47;25.10;78.10
13433;DHT22;6789;47.678;9.158;2023-06-14T16:52:39;25.20;78.30
13433;DHT22;6789;47.678;9.158;2023-06-14T16:57:30;25.20;76.80
13433;DHT22;6789;47.678;9.158;2023-06-14T17:02:22;25.20;76.80
13433;DHT22;6789;47.678;9.158;2023-06-14T17:07:28;25.10;77.10
13433;DHT22;6789;47.678;9.158;2023-06-14T17:12:20;25.00;76.70
13433;DHT22;6789;47.678;9.158;2023-06-14T17:17:19;25.10;77.10
13433;DHT22;6789;47.678;9.158;2023-06-14T17:22:12;25.00;79.70
13433;DHT22;6789;47.678;9.158;2023-06-14T17:27:07;24.90;80.00
13433;DHT22;6789;47.678;9.158;2023-06-14T17:31:59;25.00;80.30
13433;DHT22;6789;47.678;9.158;2023-06-14T17:37:05;25.00;80.80
13433;DHT22;6789;47.678;9.158;2023-06-14T17:42:11;24.90;81.70
13433;DHT22;6789;47.678;9.158;2023-06-14T17:47:19;24.90;80.90
13433;DHT22;6789;47.678;9.158;2023-06-14T17:52:27;24.90;82.30
13433;DHT22;6789;47.678;9.158;2023-06-14T17:57:21;24.60;83.60
13433;DHT22;6789;47.678;9.158;2023-06-14T18:02:16;24.40;83.30
13433;DHT22;6789;47.678;9.158;2023-06-14T18:07:22;24.30;83.10
13433;DHT22;6789;47.678;9.158;2023-06-14T18:12:18;24.30;84.80
13433;DHT22;6789;47.678;9.158;2023-06-14T18:17:10;24.30;84.40
13433;DHT22;6789;47.678;9.158;2023-06-14T18:22:06;24.00;85.60
13433;DHT22;6789;47.678;9.158;2023-06-14T18:26:58;23.90;87.00
13433;DHT22;6789;47.678;9.158;2023-06-14T18:31:52;23.90;87.20
13433;DHT22;6789;47.678;9.158;2023-06-14T18:36:44;23.80;87.50
13433;DHT22;6789;47.678;9.158;2023-06-14T18:41:36;23.70;86.90
13433;DHT22;6789;47.678;9.158;2023-06-14T18:46:46;23.50;87.40
13433;DHT22;6789;47.678;9.158;2023-06-14T18:51:53;23.40;88.00
13433;DHT22;6789;47.678;9.158;2023-06-14T18:56:58;23.30;88.00
13433;DHT22;6789;47.678;9.158;2023-06-14T19:01:51;23.20;88.00
13433;DHT22;6789;47.678;9.158;2023-06-14T19:06:57;23.10;88.20
13433;DHT22;6789;47.678;9.158;2023-06-14T19:12:04;23.00;88.70
13433;DHT22;6789;47.678;9.158;2023-06-14T19:17:03;22.90;89.40
13433;DHT22;6789;47.678;9.158;2023-06-14T19:21:57;22.70;90.20
13433;DHT22;6789;47.678;9.158;2023-06-14T19:27:03;22.60;90.70
13433;DHT22;6789;47.678;9.158;2023-06-14T19:31:55;22.40;92.10
13433;DHT22;6789;47.678;9.158;2023-06-14T19:36:47;22.20;92.10
13433;DHT22;6789;47.678;9.158;2023-06-14T19:41:39;22.00;92.50
13433;DHT22;6789;47.678;9.158;2023-06-14T19:46:45;22.00;93.60
13433;DHT22;6789;47.678;9.158;2023-06-14T19:51:37;21.90;93.70
13433;DHT22;6789;47.678;9.158;2023-06-14T19:56:34;21.70;93.60
13433;DHT22;6789;47.678;9.158;2023-06-14T20:01:27;21.50;94.00
13433;DHT22;6789;47.678;9.158;2023-06-14T20:06:20;21.40;94.20
13433;DHT22;6789;47.678;9.158;2023-06-14T20:11:26;21.20;95.10
13433;DHT22;6789;47.678;9.158;2023-06-14T20:16:19;21.00;95.70
13433;DHT22;6789;47.678;9.158;2023-06-14T20:21:11;20.90;96.00
13433;DHT22;6789;47.678;9.158;2023-06-14T20:26:17;20.80;96.20
13433;DHT22;6789;47.678;9.158;2023-06-14T20:31:23;20.60;96.40
13433;DHT22;6789;47.678;9.158;2023-06-14T20:36:16;20.50;97.00
13433;DHT22;6789;47.678;9.158;2023-06-14T20:41:09;20.40;97.10
13433;DHT22;6789;47.678;9.158;2023-06-14T20:46:09;20.40;97.20
13433;DHT22;6789;47.678;9.158;2023-06-14T20:51:17;20.30;97.00
13433;DHT22;6789;47.678;9.158;2023-06-14T20:56:10;20.30;97.50
13433;DHT22;6789;47.678;9.158;2023-06-14T21:01:03;20.20;97.90
13433;DHT22;6789;47.678;9.158;2023-06-14T21:05:58;20.20;97.30
13433;DHT22;6789;47.678;9.158;2023-06-14T21:10:56;20.20;96.90
13433;DHT22;6789;47.678;9.158;2023-06-14T21:15:50;20.00;97.40
13433;DHT22;6789;47.678;9.158;2023-06-14T21:20:42;20.00;97.00
13433;DHT22;6789;47.678;9.158;2023-06-14T21:25:34;20.00;97.00
13433;DHT22;6789;47.678;9.158;2023-06-14T21:30:33;20.00;96.90
13433;DHT22;6789;47.678;9.158;2023-06-14T21:35:27;19.90;97.20
13433;DHT22;6789;47.678;9.158;2023-06-14T21:40:19;19.80;97.40
13433;DHT22;6789;47.678;9.158;2023-06-14T21:45:12;19.80;97.40
13433;DHT22;6789;47.678;9.158;2023-06-14T21:50:04;19.80;97.30
13433;DHT22;6789;47.678;9.158;2023-06-14T21:54:57;19.70;97.50
13433;DHT22;6789;47.678;9.158;2023-06-14T21:59:49;19.60;97.60
13433;DHT22;6789;47.678;9.158;2023-06-14T22:04:42;19.60;97.70
13433;DHT22;6789;47.678;9.158;2023-06-14T22:09:34;19.50;98.10
13433;DHT22;6789;47.678;9.158;2023-06-14T22:14:26;19.40;98.30
13433;DHT22;6789;47.678;9.158;2023-06-14T22:19:21;19.30;98.90
13433;DHT22;6789;47.678;9.158;2023-06-14T22:24:13;19.30;99.30
13433;DHT22;6789;47.678;9.158;2023-06-14T22:29:06;19.20;99.60
13433;DHT22;6789;47.678;9.158;2023-06-14T22:34:05;19.00;99.90
13433;DHT22;6789;47.678;9.158;2023-06-14T22:39:12;19.00;99.90
13433;DHT22;6789;47.678;9.158;2023-06-14T22:44:20;18.90;99.90
13433;DHT22;6789;47.678;9.158;2023-06-14T22:49:29;18.80;99.90
13433;DHT22;6789;47.678;9.158;2023-06-14T22:54:28;18.70;99.90
13433;DHT22;6789;47.678;9.158;2023-06-14T22:59:28;18.60;99.90
13433;DHT22;6789;47.678;9.158;2023-06-14T23:04:33;18.70;99.90
13433;DHT22;6789;47.678;9.158;2023-06-14T23:09:26;18.60;99.90
13433;DHT22;6789;47.678;9.158;2023-06-14T23:14:18;18.60;99.90
13433;DHT22;6789;47.678;9.158;2023-06-14T23:19:09;18.50;99.90
13433;DHT22;6789;47.678;9.158;2023-06-14T23:24:01;18.50;99.90
13433;DHT22;6789;47.678;9.158;2023-06-14T23:28:54;18.50;99.90
13433;DHT22;6789;47.678;9.158;2023-06-14T23:33:47;18.40;99.90
13433;DHT22;6789;47.678;9.158;2023-06-14T23:38:44;18.30;99.90
13433;DHT22;6789;47.678;9.158;2023-06-14T23:43:43;18.20;99.90
13433;DHT22;6789;47.678;9.158;2023-06-14T23:48:38;18.10;99.90
13433;DHT22;6789;47.678;9.158;2023-06-14T23:53:31;17.90;99.90
13433;DHT22;6789;47.678;9.158;2023-06-14T23:58:25;17.70;99.90
